createdAt,value
2022-11-05T00:01:15.945Z,1.02
2022-11-05T00:03:58.265Z,1.27
2022-11-05T00:06:42.445Z,3.22
2022-11-05T00:09:34.961Z,2.67
2022-11-05T00:12:21.343Z,1.90
2022-11-05T00:15:03.763Z,2.40
2022-11-05T00:17:33.191Z,2.28
2022-11-05T00:20:02.823Z,2.28
2022-11-05T00:22:47.298Z,4.22
2022-11-05T00:25:17.100Z,2.22
2022-11-05T00:27:47.696Z,2.38
2022-11-05T00:30:20.887Z,2.13
2022-11-05T00:32:52.321Z,1.83
2022-11-05T00:35:23.526Z,2.40
2022-11-05T00:37:59.735Z,2.55
2022-11-05T00:40:28.915Z,3.35
2022-11-05T00:43:11.263Z,2.75
2022-11-05T00:45:40.849Z,1.00
2022-11-05T00:48:23.012Z,1.30
2022-11-05T00:50:53.578Z,1.50
2022-11-05T00:53:31.427Z,1.20
2022-11-05T00:56:00.705Z,1.15
2022-11-05T00:58:35.200Z,1.85
2022-11-05T01:01:06.037Z,1.23
2022-11-05T01:06:21.728Z,1.70
2022-11-05T01:08:52.853Z,1.42
2022-11-05T01:11:44.135Z,1.10
2022-11-05T01:14:15.509Z,1.58
2022-11-05T01:16:45.131Z,1.60
2022-11-05T01:19:19.600Z,2.13
2022-11-05T01:21:54.283Z,2.47
2022-11-05T01:24:26.332Z,0.70
2022-11-05T01:26:55.560Z,1.58
2022-11-05T01:29:25.706Z,1.40
2022-11-05T01:31:55.098Z,1.20
2022-11-05T01:34:25.237Z,1.10
2022-11-05T01:36:54.545Z,1.88
2022-11-05T01:39:25.823Z,2.80
2022-11-05T01:41:55.008Z,2.58
2022-11-05T01:45:03.177Z,1.52
2022-11-05T01:47:59.976Z,4.28
2022-11-05T01:50:38.982Z,1.60
2022-11-05T01:53:14.735Z,1.45
2022-11-05T01:55:51.513Z,1.77
2022-11-05T01:58:24.482Z,2.00
2022-11-05T02:00:54.320Z,2.28
2022-11-05T02:03:24.009Z,2.67
2022-11-05T02:05:55.048Z,1.50
2022-11-05T02:08:36.683Z,2.15
2022-11-05T02:11:12.993Z,3.15
2022-11-05T02:13:42.711Z,2.38
2022-11-05T02:16:25.672Z,1.70
2022-11-05T02:19:00.904Z,2.10
2022-11-05T02:22:08.365Z,2.80
2022-11-05T02:25:08.409Z,3.08
2022-11-05T02:28:20.011Z,3.05
2022-11-05T02:30:58.717Z,2.45
2022-11-05T02:33:37.956Z,1.95
2022-11-05T02:36:29.107Z,2.65
2022-11-05T02:39:14.775Z,2.97
2022-11-05T02:41:53.295Z,4.50
2022-11-05T02:44:37.422Z,1.98
2022-11-05T02:47:18.354Z,2.63
2022-11-05T02:50:00.373Z,2.63
2022-11-05T02:52:35.387Z,3.95
2022-11-05T02:57:50.257Z,2.08
2022-11-05T03:00:52.172Z,1.90
2022-11-05T03:03:29.175Z,1.65
2022-11-05T03:06:18.216Z,3.10
2022-11-05T03:09:13.383Z,2.35
2022-11-05T03:11:58.060Z,3.35
2022-11-05T03:14:36.164Z,1.90
2022-11-05T03:17:16.469Z,4.43
2022-11-05T03:19:53.041Z,2.30
2022-11-05T03:22:27.729Z,2.22
2022-11-05T03:25:02.061Z,1.83
2022-11-05T03:27:41.737Z,2.42
2022-11-05T03:30:13.572Z,2.25
2022-11-05T03:32:46.180Z,3.95
2022-11-05T03:35:23.038Z,2.85
2022-11-05T03:37:57.763Z,2.40
2022-11-05T03:40:28.223Z,3.28
2022-11-05T03:43:00.290Z,1.58
2022-11-05T03:45:34.492Z,2.85
2022-11-05T03:48:17.956Z,2.85
2022-11-05T03:50:57.715Z,1.50
2022-11-05T03:53:35.255Z,2.83
2022-11-05T03:56:08.335Z,2.80
2022-11-05T04:01:18.704Z,2.70
2022-11-05T04:03:47.815Z,1.63
2022-11-05T04:06:36.982Z,2.47
2022-11-05T04:09:19.131Z,3.20
2022-11-05T04:14:30.493Z,1.60
2022-11-05T04:17:06.485Z,2.25
2022-11-05T04:19:48.952Z,1.77
2022-11-05T04:22:33.242Z,2.08
2022-11-05T04:25:02.811Z,3.45
2022-11-05T04:27:33.370Z,2.92
2022-11-05T04:30:20.620Z,2.25
2022-11-05T04:33:11.996Z,2.88
2022-11-05T04:35:43.400Z,1.75
2022-11-05T04:38:16.570Z,4.97
2022-11-05T04:40:46.679Z,2.53
2022-11-05T04:43:17.977Z,1.52
2022-11-05T04:45:52.533Z,3.05
2022-11-05T04:48:26.846Z,2.65
2022-11-05T04:50:55.968Z,3.40
2022-11-05T04:56:11.483Z,3.13
2022-11-05T04:58:41.961Z,4.35
2022-11-05T05:01:15.075Z,2.97
2022-11-05T05:03:44.640Z,3.45
2022-11-05T05:06:19.742Z,2.50
2022-11-05T05:08:51.889Z,2.35
2022-11-05T05:11:26.177Z,2.40
2022-11-05T05:13:55.218Z,3.58
2022-11-05T05:16:29.703Z,1.55
2022-11-05T05:18:58.827Z,2.05
2022-11-05T05:21:40.616Z,1.55
2022-11-05T05:24:13.934Z,2.42
2022-11-05T05:26:45.468Z,4.65
2022-11-05T05:29:15.660Z,2.53
2022-11-05T05:31:45.352Z,4.85
2022-11-05T05:34:26.380Z,3.25
2022-11-05T05:36:55.785Z,1.20
2022-11-05T05:39:28.107Z,2.22
2022-11-05T05:41:57.337Z,2.25
2022-11-05T05:44:27.511Z,2.90
2022-11-05T05:49:31.838Z,2.30
2022-11-05T05:52:01.036Z,3.33
2022-11-05T05:54:35.004Z,1.73
2022-11-05T05:57:07.055Z,1.85
2022-11-05T05:59:38.649Z,2.10
2022-11-05T06:02:08.234Z,4.25
2022-11-05T06:04:37.431Z,1.73
2022-11-05T06:07:13.435Z,1.73
2022-11-05T06:09:55.712Z,3.47
2022-11-05T06:12:25.067Z,1.23
2022-11-05T06:14:54.159Z,2.03
2022-11-05T06:17:23.464Z,0.68
2022-11-05T06:22:27.632Z,1.88
2022-11-05T06:24:58.732Z,1.65
2022-11-05T06:27:28.009Z,1.50
2022-11-05T06:29:57.236Z,1.73
2022-11-05T06:32:26.579Z,2.80
2022-11-05T06:35:00.737Z,1.63
2022-11-05T06:37:30.063Z,1.10
2022-11-05T06:40:07.269Z,1.92
2022-11-05T06:42:36.664Z,1.83
2022-11-05T06:45:07.774Z,1.25
2022-11-05T06:47:37.192Z,1.85
2022-11-05T06:50:07.169Z,2.97
2022-11-05T06:52:40.906Z,3.08
2022-11-05T06:55:12.605Z,4.82
2022-11-05T06:57:46.847Z,0.88
2022-11-05T07:00:17.079Z,1.13
2022-11-05T07:02:46.636Z,1.08
2022-11-05T07:05:16.579Z,2.08
2022-11-05T07:07:47.239Z,2.53
2022-11-05T07:10:23.451Z,1.80
2022-11-05T07:12:52.727Z,3.47
2022-11-05T07:15:21.923Z,1.30
2022-11-05T07:17:51.145Z,1.15
2022-11-05T07:20:20.519Z,2.72
2022-11-05T07:22:49.736Z,1.40
2022-11-05T07:25:19.222Z,0.95
2022-11-05T07:27:50.349Z,2.38
2022-11-05T07:30:24.825Z,1.30
2022-11-05T07:32:54.532Z,2.17
2022-11-05T07:35:23.664Z,1.23
2022-11-05T07:37:55.861Z,1.75
2022-11-05T07:40:27.139Z,1.00
2022-11-05T07:42:59.812Z,4.35
2022-11-05T07:45:31.274Z,1.52
2022-11-05T07:48:02.836Z,2.75
2022-11-05T07:50:34.374Z,2.17
2022-11-05T07:53:04.389Z,1.38
2022-11-05T07:55:33.484Z,1.00
2022-11-05T07:58:05.260Z,1.88
2022-11-05T08:00:35.445Z,1.10
2022-11-05T08:03:14.690Z,1.50
2022-11-05T08:05:46.378Z,1.17
2022-11-05T08:08:17.157Z,1.35
2022-11-05T08:10:47.369Z,2.20
2022-11-05T08:13:19.477Z,2.22
2022-11-05T08:15:48.985Z,1.92
2022-11-05T08:18:19.461Z,1.45
2022-11-05T08:20:50.162Z,5.63
2022-11-05T08:23:19.515Z,2.00
2022-11-05T08:25:48.621Z,3.72
2022-11-05T08:28:26.366Z,3.92
2022-11-05T08:30:57.224Z,1.52
2022-11-05T08:33:29.072Z,3.85
2022-11-05T08:35:58.373Z,1.55
2022-11-05T08:38:27.786Z,0.95
2022-11-05T08:40:59.419Z,2.05
2022-11-05T08:43:30.684Z,1.27
2022-11-05T08:46:02.122Z,4.75
2022-11-05T08:48:31.457Z,1.80
2022-11-05T08:51:03.599Z,1.90
2022-11-05T08:53:33.996Z,1.77
2022-11-05T08:56:03.360Z,3.38
2022-11-05T08:58:34.765Z,2.38
2022-11-05T09:01:06.509Z,1.65
2022-11-05T09:03:40.946Z,2.92
2022-11-05T09:06:10.432Z,3.28
2022-11-05T09:08:39.676Z,1.73
2022-11-05T09:11:08.926Z,1.70
2022-11-05T09:13:40.076Z,2.75
2022-11-05T09:16:20.085Z,2.00
2022-11-05T09:18:49.736Z,3.75
2022-11-05T09:21:19.516Z,3.42
2022-11-05T09:23:49.252Z,2.60
2022-11-05T09:26:18.542Z,2.17
2022-11-05T09:28:50.803Z,3.17
2022-11-05T09:31:20.048Z,3.10
2022-11-05T09:33:49.438Z,2.58
2022-11-05T09:36:18.722Z,1.88
2022-11-05T09:38:47.833Z,3.97
2022-11-05T09:41:25.561Z,3.42
2022-11-05T09:44:00.546Z,2.38
2022-11-05T09:46:35.775Z,4.45
2022-11-05T09:49:09.586Z,3.17
2022-11-05T09:51:39.578Z,2.80
2022-11-05T09:54:08.652Z,2.63
2022-11-05T09:56:42.711Z,3.05
2022-11-05T09:59:20.000Z,3.13
2022-11-05T10:01:52.322Z,8.60
2022-11-05T10:04:25.632Z,5.43
2022-11-05T10:06:58.887Z,3.47
2022-11-05T10:09:31.826Z,2.92
2022-11-05T10:12:09.137Z,4.05
2022-11-05T10:14:44.815Z,4.00
2022-11-05T10:17:26.856Z,3.30
2022-11-05T10:20:02.066Z,3.28
2022-11-05T10:22:32.633Z,3.90
2022-11-05T10:25:02.285Z,3.03
2022-11-05T10:27:37.226Z,2.70
2022-11-05T10:30:09.731Z,1.65
2022-11-05T10:32:41.184Z,2.95
2022-11-05T10:35:16.209Z,3.45
2022-11-05T10:37:50.381Z,3.75
2022-11-05T10:40:30.939Z,6.85
2022-11-05T10:43:06.722Z,2.58
2022-11-05T10:45:48.313Z,3.58
2022-11-05T10:48:31.766Z,2.63
2022-11-05T10:51:08.353Z,5.50
2022-11-05T10:54:09.339Z,4.10
2022-11-05T10:56:40.763Z,3.53
2022-11-05T10:59:22.833Z,5.13
2022-11-05T11:04:37.681Z,3.03
2022-11-05T11:07:07.644Z,5.45
2022-11-05T11:09:38.833Z,3.20
2022-11-05T11:12:16.721Z,4.15
2022-11-05T11:15:01.839Z,4.35
2022-11-05T11:17:35.553Z,4.10
2022-11-05T11:20:22.126Z,8.15
2022-11-05T11:23:13.969Z,3.20
2022-11-05T11:28:23.431Z,3.03
2022-11-05T11:30:57.037Z,3.95
2022-11-05T11:33:30.341Z,3.47
2022-11-05T11:36:00.176Z,5.97
2022-11-05T11:38:32.448Z,3.53
2022-11-05T11:41:26.707Z,2.78
2022-11-05T11:43:58.932Z,2.80
2022-11-05T11:46:32.748Z,2.78
2022-11-05T11:49:04.735Z,4.13
2022-11-05T11:54:24.865Z,2.83
2022-11-05T11:56:57.959Z,2.78
2022-11-05T12:02:58.869Z,4.07
2022-11-05T12:05:46.463Z,3.75
2022-11-05T12:08:34.618Z,4.60
2022-11-05T12:11:09.770Z,5.45
2022-11-05T12:14:06.366Z,3.90
2022-11-05T12:17:00.909Z,5.03
2022-11-05T12:19:49.868Z,3.40
2022-11-05T12:22:30.814Z,3.90
2022-11-05T12:28:03.982Z,2.70
2022-11-05T12:30:46.074Z,4.38
2022-11-05T12:36:10.462Z,4.25
2022-11-05T12:41:36.608Z,3.57
2022-11-05T12:44:32.403Z,5.55
2022-11-05T12:47:19.658Z,9.05
2022-11-05T12:55:49.217Z,5.47
2022-11-05T12:58:24.913Z,4.38
2022-11-05T13:00:59.645Z,5.90
2022-11-05T13:03:38.457Z,4.00
2022-11-05T13:06:12.088Z,6.65
2022-11-05T13:08:46.430Z,5.20
2022-11-05T13:11:24.719Z,6.38
2022-11-05T13:14:05.835Z,8.60
2022-11-05T13:16:39.218Z,4.25
2022-11-05T13:19:18.593Z,6.32
2022-11-05T13:21:54.145Z,5.35
2022-11-05T13:24:26.762Z,4.50
2022-11-05T13:27:17.000Z,3.63
2022-11-05T13:29:51.839Z,4.82
2022-11-05T13:32:37.422Z,3.20
2022-11-05T13:35:09.637Z,4.60
2022-11-05T13:37:59.904Z,4.82
2022-11-05T13:40:56.969Z,3.85
2022-11-05T13:43:51.851Z,4.30
2022-11-05T13:46:34.205Z,4.18
2022-11-05T13:52:24.619Z,3.80
2022-11-05T13:55:19.860Z,4.90
2022-11-05T13:58:04.152Z,4.97
2022-11-05T14:00:41.832Z,7.65
2022-11-05T14:03:21.124Z,5.65
2022-11-05T14:05:56.794Z,4.90
2022-11-05T14:08:31.911Z,4.80
2022-11-05T14:11:10.464Z,3.97
2022-11-05T14:13:42.425Z,4.55
2022-11-05T14:18:50.324Z,7.60
2022-11-05T14:21:50.910Z,4.45
2022-11-05T14:24:47.527Z,5.68
2022-11-05T14:27:46.434Z,5.35
2022-11-05T14:30:43.852Z,6.95
2022-11-05T14:33:33.136Z,5.75
2022-11-05T14:36:37.906Z,5.90
2022-11-05T14:39:26.147Z,2.92
2022-11-05T14:41:58.578Z,5.80
2022-11-05T14:44:40.173Z,7.10
2022-11-05T14:47:24.007Z,6.60
2022-11-05T14:50:02.102Z,4.75
2022-11-05T14:52:33.525Z,7.78
2022-11-05T14:55:02.962Z,5.40
2022-11-05T14:58:03.793Z,5.30
2022-11-05T15:00:52.529Z,6.15
2022-11-05T15:03:47.535Z,6.63
2022-11-05T15:06:30.270Z,4.70
2022-11-05T15:09:12.127Z,4.20
2022-11-05T15:11:58.335Z,5.13
2022-11-05T15:14:33.350Z,5.70
2022-11-05T15:17:15.271Z,6.75
2022-11-05T15:19:46.371Z,6.13
2022-11-05T15:22:31.190Z,4.47
2022-11-05T15:25:00.935Z,6.50
2022-11-05T15:27:48.249Z,7.63
2022-11-05T15:30:19.192Z,4.57
2022-11-05T15:32:48.718Z,4.60
2022-11-05T15:35:24.339Z,5.72
2022-11-05T15:38:01.661Z,6.75
2022-11-05T15:40:33.382Z,4.85
2022-11-05T15:43:19.559Z,7.38
2022-11-05T15:46:07.405Z,4.22
2022-11-05T15:48:38.040Z,5.22
2022-11-05T15:51:08.072Z,7.43
2022-11-05T15:54:28.473Z,6.80
2022-11-05T15:56:53.972Z,6.07
2022-11-05T15:59:25.173Z,6.03
2022-11-05T16:01:57.149Z,5.95
2022-11-05T16:04:29.764Z,8.50
2022-11-05T16:07:01.953Z,5.88
2022-11-05T16:09:45.527Z,6.93
2022-11-05T16:12:26.721Z,7.50
2022-11-05T16:15:01.424Z,9.18
2022-11-05T16:17:48.239Z,8.20
2022-11-05T16:20:24.851Z,8.38
2022-11-05T16:22:56.149Z,8.88
2022-11-05T16:25:41.138Z,8.40
2022-11-05T16:28:23.348Z,6.13
2022-11-05T16:31:02.933Z,7.07
2022-11-05T16:33:36.205Z,5.80
2022-11-05T16:36:06.056Z,10.07
2022-11-05T16:38:35.480Z,6.40
2022-11-05T16:41:06.796Z,7.88
2022-11-05T16:43:36.454Z,6.90
2022-11-05T16:46:06.315Z,9.05
2022-11-05T16:48:35.467Z,7.45
2022-11-05T16:51:05.239Z,6.30
2022-11-05T16:53:34.467Z,5.90
2022-11-05T16:56:06.444Z,6.30
2022-11-05T16:58:35.967Z,7.18
2022-11-05T17:01:07.887Z,6.88
2022-11-05T17:03:37.801Z,5.70
2022-11-05T17:06:07.942Z,8.90
2022-11-05T17:08:43.935Z,8.05
2022-11-05T17:11:17.378Z,6.93
2022-11-05T17:13:51.661Z,8.00
2022-11-05T17:16:20.985Z,8.50
2022-11-05T17:18:50.577Z,7.82
2022-11-05T17:21:20.131Z,8.02
2022-11-05T17:23:49.384Z,8.25
2022-11-05T17:26:22.647Z,9.82
2022-11-05T17:28:52.057Z,11.25
2022-11-05T17:31:21.279Z,10.13
2022-11-05T17:33:55.561Z,7.80
2022-11-05T17:36:25.322Z,6.57
2022-11-05T17:38:55.529Z,9.10
2022-11-05T17:41:31.946Z,7.65
2022-11-05T17:44:01.216Z,8.63
2022-11-05T17:46:30.618Z,8.20
2022-11-05T17:49:00.022Z,9.00
2022-11-05T17:51:29.371Z,9.88
2022-11-05T17:53:58.851Z,8.27
2022-11-05T17:56:34.419Z,10.90
2022-11-05T17:59:07.614Z,10.27
2022-11-05T18:01:47.704Z,8.50
2022-11-05T18:04:17.120Z,11.95
2022-11-05T18:06:46.213Z,8.77
2022-11-05T18:09:17.195Z,9.27
2022-11-05T18:11:46.528Z,11.53
2022-11-05T18:14:22.784Z,12.52
2022-11-05T18:16:54.781Z,8.45
2022-11-05T18:19:24.209Z,9.40
2022-11-05T18:21:53.398Z,7.78
2022-11-05T18:24:22.920Z,9.82
2022-11-05T18:26:52.990Z,8.43
2022-11-05T18:29:24.104Z,10.27
2022-11-05T18:31:53.500Z,6.85
2022-11-05T18:34:22.948Z,11.35
2022-11-05T18:36:56.600Z,6.70
2022-11-05T18:39:26.643Z,12.30
2022-11-05T18:41:56.077Z,10.95
2022-11-05T18:44:37.810Z,8.45
2022-11-05T18:47:08.849Z,7.65
2022-11-05T18:49:41.213Z,10.05
2022-11-05T18:52:10.700Z,10.43
2022-11-05T18:54:39.961Z,10.73
2022-11-05T18:57:09.649Z,8.88
2022-11-05T18:59:41.681Z,7.82
2022-11-05T19:02:18.153Z,12.70
2022-11-05T19:05:07.000Z,9.45
2022-11-05T19:07:43.648Z,8.43
2022-11-05T19:10:13.062Z,10.05
2022-11-05T19:12:42.595Z,8.38
2022-11-05T19:15:19.039Z,10.23
2022-11-05T19:17:48.440Z,10.88
2022-11-05T19:20:17.931Z,10.90
2022-11-05T19:22:47.358Z,9.98
2022-11-05T19:25:16.625Z,7.93
2022-11-05T19:27:46.122Z,9.10
2022-11-05T19:30:17.526Z,11.20
2022-11-05T19:32:46.947Z,12.13
2022-11-05T19:35:16.295Z,10.40
2022-11-05T19:37:45.767Z,12.10
2022-11-05T19:40:15.014Z,10.55
2022-11-05T19:42:44.265Z,12.20
2022-11-05T19:45:43.040Z,15.00
2022-11-05T19:48:11.431Z,8.93
2022-11-05T19:50:44.183Z,11.52
2022-11-05T19:53:13.481Z,13.77
2022-11-05T19:55:44.584Z,13.20
2022-11-05T19:58:14.135Z,10.75
2022-11-05T20:00:43.757Z,18.38
2022-11-05T20:03:15.551Z,16.02
2022-11-05T20:05:49.936Z,15.27
2022-11-05T20:08:24.248Z,18.73
2022-11-05T20:10:56.959Z,13.52
2022-11-05T20:13:31.620Z,13.70
2022-11-05T20:16:01.361Z,16.00
2022-11-05T20:18:33.214Z,13.80
2022-11-05T20:23:33.380Z,15.93
2022-11-05T20:26:07.763Z,12.10
2022-11-05T20:28:38.432Z,15.02
2022-11-05T20:31:12.108Z,14.85
2022-11-05T20:33:44.546Z,14.38
2022-11-05T20:36:15.950Z,12.45
2022-11-05T20:38:49.851Z,15.50
2022-11-05T20:41:21.894Z,13.23
2022-11-05T20:43:51.149Z,12.07
2022-11-05T20:46:21.924Z,12.57
2022-11-05T20:48:58.271Z,17.05
2022-11-05T20:51:27.527Z,15.68
2022-11-05T20:53:58.017Z,12.48
2022-11-05T20:56:29.586Z,13.68
2022-11-05T20:58:59.786Z,17.08
2022-11-05T21:01:36.086Z,14.15
2022-11-05T21:04:08.671Z,14.10
2022-11-05T21:06:37.948Z,12.73
2022-11-05T21:09:07.666Z,12.82
2022-11-05T21:12:02.897Z,16.23
2022-11-05T21:14:32.064Z,16.13
2022-11-05T21:17:01.135Z,15.63
2022-11-05T21:19:32.611Z,16.45
2022-11-05T21:22:02.308Z,12.43
2022-11-05T21:24:31.590Z,16.30
2022-11-05T21:27:01.125Z,17.92
2022-11-05T21:29:30.313Z,14.15
2022-11-05T21:31:59.812Z,16.80
2022-11-05T21:34:34.971Z,17.35
2022-11-05T21:37:11.279Z,16.48
2022-11-05T21:39:41.034Z,15.50
2022-11-05T21:42:10.248Z,17.27
2022-11-05T21:44:39.691Z,16.77
2022-11-05T21:47:09.157Z,14.70
2022-11-05T21:49:38.841Z,15.05
2022-11-05T21:52:25.821Z,13.52
2022-11-05T21:55:07.899Z,15.48
2022-11-05T21:57:55.457Z,12.43
2022-11-05T22:00:24.947Z,12.30
2022-11-05T22:02:54.326Z,13.65
2022-11-05T22:05:23.550Z,14.73
2022-11-05T22:07:54.768Z,13.23
2022-11-05T22:10:29.072Z,13.77
2022-11-05T22:12:58.339Z,14.35
2022-11-05T22:15:32.732Z,15.68
2022-11-05T22:18:01.951Z,14.52
2022-11-05T22:20:31.200Z,15.27
2022-11-05T22:23:02.349Z,15.43
2022-11-05T22:25:31.654Z,12.15
2022-11-05T22:28:00.748Z,12.13
2022-11-05T22:30:30.147Z,14.20
2022-11-05T22:32:59.417Z,13.10
2022-11-05T22:35:28.945Z,14.20
2022-11-05T22:38:04.520Z,16.42
2022-11-05T22:40:35.724Z,13.25
2022-11-05T22:43:10.196Z,10.63
2022-11-05T22:45:40.187Z,17.13
2022-11-05T22:48:09.864Z,16.13
2022-11-05T22:50:39.624Z,13.40
2022-11-05T22:53:08.723Z,14.38
2022-11-05T22:55:42.964Z,12.88
2022-11-05T22:58:12.413Z,10.57
2022-11-05T23:00:41.806Z,12.10
2022-11-05T23:03:11.584Z,12.18
2022-11-05T23:05:40.819Z,14.05
2022-11-05T23:08:24.604Z,11.20
2022-11-05T23:11:17.641Z,12.35
2022-11-05T23:13:46.791Z,12.13
2022-11-05T23:16:28.727Z,10.50
2022-11-05T23:21:52.567Z,10.65
2022-11-05T23:26:53.410Z,11.52
2022-11-05T23:29:25.057Z,12.10
2022-11-05T23:32:07.501Z,15.00
2022-11-05T23:34:37.196Z,12.65
2022-11-05T23:37:19.496Z,12.88
2022-11-05T23:39:50.018Z,13.68
2022-11-05T23:42:39.973Z,11.40
2022-11-05T23:45:23.638Z,14.15
2022-11-05T23:48:05.872Z,11.20
2022-11-05T23:50:39.482Z,11.70
2022-11-05T23:53:09.521Z,13.23
2022-11-05T23:55:39.380Z,12.45
2022-11-05T23:58:12.092Z,13.38
